Time;durP1;ratioP1;P1;durP2;ratioP2;P2;SDS_P1;SDS_P2;PMS_P1;PMS_P2;Temp;Humidity;BMP_temperature;BMP_pressure;BME280_temperature;BME280_humidity;BME280_pressure;Samples;Min_cycle;Max_cycle;Signal;HPM_P1;HPM_P2
2023/04/25 03:52:05;;;;;;;6.10;2.80;;;;;;;10.27;100.00;99278.94;5289341;33;33083;-90
2023/04/25 03:55:09;;;;;;;4.97;2.95;;;;;;;10.23;100.00;99283.03;5293130;33;33612;-90
2023/04/25 03:58:12;;;;;;;3.47;3.08;;;;;;;10.21;100.00;99287.81;5293473;33;33914;-89
2023/04/25 04:01:15;;;;;;;4.55;3.37;;;;;;;10.19;100.00;99290.69;5279907;33;33782;-89
2023/04/25 04:04:18;;;;;;;3.55;2.83;;;;;;;10.19;100.00;99279.91;5293347;33;34965;-89
2023/04/25 04:07:22;;;;;;;3.90;3.20;;;;;;;10.15;100.00;99286.75;5291431;33;34668;-90
2023/04/25 04:10:26;;;;;;;5.40;3.37;;;;;;;10.19;100.00;99285.31;5292892;33;33579;-89
2023/04/25 04:13:30;;;;;;;3.97;2.97;;;;;;;10.11;100.00;99300.78;5299870;33;33522;-90
2023/04/25 04:16:33;;;;;;;3.75;3.30;;;;;;;10.09;100.00;99297.47;5293524;33;35301;-90
2023/04/25 04:19:36;;;;;;;7.28;3.53;;;;;;;10.13;100.00;99293.34;5279748;33;34506;-90
2023/04/25 04:22:40;;;;;;;5.32;3.28;;;;;;;10.09;100.00;99300.16;5291322;33;34556;-89
2023/04/25 04:25:44;;;;;;;4.37;3.30;;;;;;;10.02;100.00;99302.81;5291184;33;33875;-89
2023/04/25 04:28:47;;;;;;;4.78;3.58;;;;;;;9.95;100.00;99307.34;5291708;33;34946;-87
2023/04/25 04:31:52;;;;;;;6.70;3.40;;;;;;;9.95;100.00;99307.34;5289994;33;33556;-86
2023/04/25 04:34:55;;;;;;;5.43;3.60;;;;;;;9.93;100.00;99298.66;5291828;33;34301;-86
2023/04/25 04:37:58;;;;;;;5.10;3.47;;;;;;;9.93;100.00;99307.53;5291293;33;33933;-86
2023/04/25 04:41:03;;;;;;;3.50;3.10;;;;;;;9.91;100.00;99304.22;5290353;33;33559;-86
2023/04/25 04:44:09;;;;;;;4.65;3.53;;;;;;;9.88;100.00;99307.31;5279144;33;34006;-86
2023/04/25 04:47:13;;;;;;;4.12;3.53;;;;;;;9.90;100.00;99301.75;5293425;33;33577;-88
2023/04/25 04:50:21;;;;;;;4.90;3.10;;;;;;;9.85;100.00;99299.63;5290655;33;34626;-88
2023/04/25 04:53:27;;;;;;;4.70;3.42;;;;;;;9.76;100.00;99308.91;5292002;33;33942;-88
2023/04/25 04:56:30;;;;;;;3.75;3.28;;;;;;;9.83;100.00;99301.72;5292463;33;33845;-88
2023/04/25 04:59:35;;;;;;;3.83;3.35;;;;;;;9.79;100.00;99300.44;5292165;33;33829;-88
2023/04/25 05:02:38;;;;;;;3.60;3.28;;;;;;;9.81;100.00;99309.16;5268349;33;34191;-89
2023/04/25 05:05:42;;;;;;;3.90;3.50;;;;;;;9.82;100.00;99321.53;5291899;33;33776;-88
2023/04/25 05:08:45;;;;;;;4.10;3.08;;;;;;;9.77;100.00;99319.47;5267807;33;34178;-88
2023/04/25 05:11:48;;;;;;;3.62;3.33;;;;;;;9.66;100.00;99319.19;5279079;33;33550;-88
2023/04/25 05:14:52;;;;;;;4.05;3.47;;;;;;;9.58;100.00;99314.81;5278967;33;33783;-88
2023/04/25 05:18:01;;;;;;;3.30;3.00;;;;;;;9.46;100.00;99319.06;5268172;33;35301;-89
2023/04/25 05:21:05;;;;;;;4.28;3.55;;;;;;;9.38;100.00;99319.22;5292259;33;34847;-88
2023/04/25 05:24:09;;;;;;;10.55;3.65;;;;;;;9.26;100.00;99318.91;5292632;33;34055;-88
2023/04/25 05:27:18;;;;;;;4.55;3.30;;;;;;;9.15;100.00;99325.66;5292606;33;33590;-88
2023/04/25 05:30:22;;;;;;;3.90;3.50;;;;;;;8.99;100.00;99326.78;5279723;33;34027;-88
2023/04/25 05:33:26;;;;;;;5.07;3.58;;;;;;;8.93;100.00;99326.72;5293240;33;35288;-92
2023/04/25 05:36:30;;;;;;;5.10;3.53;;;;;;;8.83;100.00;99322.50;5282404;33;35261;-89
2023/04/25 05:39:34;;;;;;;5.40;3.70;;;;;;;8.76;100.00;99318.91;5270171;33;35008;-92
2023/04/25 05:42:37;;;;;;;4.60;3.70;;;;;;;8.74;100.00;99322.81;5268862;33;34057;-88
2023/04/25 05:45:40;;;;;;;6.45;3.60;;;;;;;8.69;100.00;99328.78;5286930;33;33681;-88
2023/04/25 05:48:44;;;;;;;7.00;4.32;;;;;;;8.57;100.00;99328.44;5268116;33;34210;-88
2023/04/25 05:51:55;;;;;;;5.95;3.70;;;;;;;8.51;100.00;99339.94;5326067;27;33804;-85
2023/04/25 05:55:00;;;;;;;8.13;3.92;;;;;;;8.42;100.00;99332.19;5308410;33;34408;-86
2023/04/25 05:58:06;;;;;;;6.85;4.43;;;;;;;8.39;100.00;99328.88;5298010;33;34504;-86
2023/04/25 06:05:15;;;;;;;7.15;4.12;;;;;;;8.30;100.00;99334.50;3965735;28;20111;-86
2023/04/25 06:08:20;;;;;;;7.07;4.10;;;;;;;8.26;100.00;99336.72;5346764;28;35166;-85
2023/04/25 06:11:22;;;;;;;6.03;4.53;;;;;;;8.29;100.00;99336.34;5314675;33;33548;-86
2023/04/25 06:14:26;;;;;;;7.35;5.15;;;;;;;8.28;100.00;99345.44;5408851;28;34437;-87
2023/04/25 06:17:31;;;;;;;6.32;4.28;;;;;;;8.34;100.00;99342.00;5318923;33;34800;-87
2023/04/25 06:20:35;;;;;;;6.22;4.68;;;;;;;8.35;100.00;99340.13;5336506;33;33662;-87
2023/04/25 06:23:38;;;;;;;6.97;4.65;;;;;;;8.37;100.00;99346.97;5319868;33;33803;-87
2023/04/25 06:26:42;;;;;;;8.20;4.45;;;;;;;8.49;100.00;99344.66;5347405;28;33489;-88
2023/04/25 06:29:45;;;;;;;7.35;4.47;;;;;;;8.59;100.00;99342.47;5309451;33;33606;-88
2023/04/25 06:32:49;;;;;;;8.10;5.20;;;;;;;8.71;100.00;99350.84;5332710;33;34365;-87
2023/04/25 06:35:53;;;;;;;7.20;4.97;;;;;;;8.87;100.00;99348.97;5300015;33;33499;-87
2023/04/25 06:38:58;;;;;;;7.07;5.07;;;;;;;8.96;100.00;99342.44;5311976;33;34053;-86
2023/04/25 06:42:01;;;;;;;6.90;4.70;;;;;;;9.03;100.00;99340.63;5300102;33;33313;-87
2023/04/25 06:45:06;;;;;;;7.72;4.75;;;;;;;9.11;100.00;99353.94;5358632;28;31819;-88
2023/04/25 06:48:11;;;;;;;7.35;4.55;;;;;;;9.19;100.00;99345.75;5339769;28;35280;-89
2023/04/25 06:51:17;;;;;;;5.47;4.87;;;;;;;9.38;100.00;99351.44;5297467;33;34033;-89
2023/04/25 06:54:54;;;;;;;8.15;5.35;;;;;;;9.40;100.00;99344.84;5356901;28;35244;-84
2023/04/25 06:57:58;;;;;;;5.78;4.43;;;;;;;9.56;100.00;99345.56;5373277;27;33945;-88
2023/04/25 07:01:05;;;;;;;6.15;4.65;;;;;;;9.71;100.00;99349.81;5300469;33;33772;-88
2023/04/25 07:04:26;;;;;;;7.10;4.87;;;;;;;9.98;100.00;99348.13;5313666;28;34378;-86
2023/04/25 07:07:30;;;;;;;5.55;4.78;;;;;;;9.92;100.00;99343.53;5318170;33;34458;-86
2023/04/25 07:10:34;;;;;;;6.47;4.22;;;;;;;10.03;100.00;99339.44;5318400;33;34696;-86
2023/04/25 07:13:37;;;;;;;6.75;4.95;;;;;;;10.12;100.00;99343.63;5291614;33;33951;-86
2023/04/25 07:16:40;;;;;;;8.15;5.45;;;;;;;10.45;100.00;99340.25;5304600;33;33752;-86
2023/04/25 07:19:44;;;;;;;5.68;4.62;;;;;;;10.64;100.00;99346.72;5328758;33;34027;-86
2023/04/25 07:22:50;;;;;;;5.37;4.87;;;;;;;10.70;100.00;99345.91;5328043;33;33297;-86
2023/04/25 07:25:54;;;;;;;7.22;4.72;;;;;;;10.89;100.00;99355.06;5328329;33;34044;-86
2023/04/25 07:28:57;;;;;;;7.97;4.75;;;;;;;11.12;100.00;99351.97;5311442;33;34055;-86
2023/04/25 07:32:00;;;;;;;4.45;4.05;;;;;;;11.34;100.00;99341.81;5306576;33;33903;-86
2023/04/25 07:35:08;;;;;;;5.10;4.43;;;;;;;11.55;100.00;99354.22;5308938;33;35044;-86
2023/04/25 07:38:11;;;;;;;5.75;4.60;;;;;;;11.67;100.00;99351.72;5313376;33;33801;-88
2023/04/25 07:41:25;;;;;;;5.35;4.10;;;;;;;11.71;100.00;99351.09;5382499;28;33721;-88
2023/04/25 07:44:30;;;;;;;4.65;4.18;;;;;;;11.74;100.00;99350.66;5301471;33;33917;-88
2023/04/25 07:47:33;;;;;;;6.68;4.25;;;;;;;11.69;100.00;99361.25;5295766;33;34384;-85
2023/04/25 07:50:36;;;;;;;5.10;4.10;;;;;;;11.85;100.00;99357.31;5301515;33;32569;-85
2023/04/25 07:53:40;;;;;;;5.43;4.30;;;;;;;12.00;100.00;99357.91;5307379;33;34805;-85
2023/04/25 07:56:44;;;;;;;4.12;3.72;;;;;;;12.17;100.00;99357.44;5311570;33;34223;-86
2023/04/25 07:59:56;;;;;;;4.68;3.55;;;;;;;12.42;100.00;99360.22;5276755;33;35352;-90
2023/04/25 08:02:59;;;;;;;4.07;3.70;;;;;;;12.65;100.00;99365.09;5295623;33;34299;-91
2023/04/25 08:06:03;;;;;;;5.85;4.30;;;;;;;12.71;100.00;99358.84;5267136;33;35402;-90
2023/04/25 08:09:11;;;;;;;4.25;3.85;;;;;;;12.57;100.00;99354.53;5291988;33;33753;-86
2023/04/25 08:12:15;;;;;;;3.80;3.45;;;;;;;13.03;100.00;99353.44;5282166;33;33631;-85
2023/04/25 08:15:18;;;;;;;3.72;3.30;;;;;;;13.36;100.00;99364.84;5280834;33;33474;-86
2023/04/25 08:18:22;;;;;;;3.83;3.53;;;;;;;13.40;100.00;99365.25;5288700;33;34561;-85
2023/04/25 08:21:27;;;;;;;5.07;3.10;;;;;;;13.41;100.00;99360.66;5280750;33;33967;-86
2023/04/25 08:24:30;;;;;;;5.20;3.35;;;;;;;13.52;100.00;99354.53;5285850;33;33453;-85
2023/04/25 08:27:33;;;;;;;3.50;3.20;;;;;;;13.83;100.00;99351.72;5280649;33;33831;-85
2023/04/25 08:30:37;;;;;;;3.10;2.80;;;;;;;13.66;100.00;99357.91;5290153;33;33400;-85
2023/04/25 08:33:40;;;;;;;3.60;3.00;;;;;;;13.83;99.37;99350.88;5302886;33;33707;-85
2023/04/25 08:36:43;;;;;;;2.90;2.60;;;;;;;13.65;100.00;99356.28;5295444;33;34053;-85
2023/04/25 08:39:50;;;;;;;3.30;3.00;;;;;;;13.73;98.65;99347.88;5294205;33;34808;-85
2023/04/25 08:42:55;;;;;;;3.72;2.80;;;;;;;13.62;100.00;99357.53;5264898;33;34056;-85
2023/04/25 08:46:00;;;;;;;4.25;3.05;;;;;;;13.47;99.60;99362.47;5277284;33;33805;-85
2023/04/25 08:49:11;;;;;;;3.55;3.25;;;;;;;13.30;100.00;99365.72;5286036;33;33648;-85
2023/04/25 08:52:14;;;;;;;3.62;3.20;;;;;;;13.67;98.46;99368.53;5279303;33;33794;-85
2023/04/25 08:55:18;;;;;;;3.78;3.20;;;;;;;13.86;97.89;99372.06;5272341;33;33654;-85
2023/04/25 08:58:23;;;;;;;2.92;2.72;;;;;;;13.90;98.63;99375.19;5281552;33;33948;-85
2023/04/25 09:01:26;;;;;;;4.30;2.90;;;;;;;13.91;96.72;99383.06;5276847;33;34210;-85
2023/04/25 09:04:33;;;;;;;4.57;3.37;;;;;;;13.72;99.31;99378.69;5264879;33;34031;-86
2023/04/25 09:07:39;;;;;;;5.57;3.42;;;;;;;14.00;97.11;99375.47;5291077;33;33694;-85
2023/04/25 09:10:42;;;;;;;4.55;3.28;;;;;;;14.27;96.66;99376.84;5275105;33;34147;-85
2023/04/25 09:13:45;;;;;;;3.60;3.30;;;;;;;14.52;93.97;99386.75;5278246;33;33748;-85
2023/04/25 09:16:56;;;;;;;4.18;3.20;;;;;;;14.56;92.72;99379.81;5278851;33;32919;-85
2023/04/25 09:20:10;;;;;;;5.93;3.25;;;;;;;14.67;89.93;99372.81;5277316;33;34217;-85
2023/04/25 09:23:15;;;;;;;4.65;3.30;;;;;;;14.63;92.58;99380.59;5265490;33;33367;-85
2023/04/25 09:26:20;;;;;;;4.55;2.90;;;;;;;14.67;91.16;99378.22;5278827;33;33809;-85
2023/04/25 09:29:32;;;;;;;4.25;2.95;;;;;;;14.78;89.36;99376.66;5294417;33;34449;-86
2023/04/25 09:32:35;;;;;;;3.62;2.72;;;;;;;14.96;87.19;99366.56;5281280;33;35379;-91
2023/04/25 09:35:43;;;;;;;3.30;2.53;;;;;;;15.34;88.16;99369.94;5263853;33;34379;-91
2023/04/25 09:38:47;;;;;;;4.43;2.90;;;;;;;15.39;84.40;99370.06;5289186;33;33905;-88
2023/04/25 09:41:53;;;;;;;4.05;2.75;;;;;;;15.61;82.68;99364.88;5270480;33;33978;-88
2023/04/25 09:44:57;;;;;;;2.75;2.45;;;;;;;15.94;81.87;99374.34;5282013;33;34601;-88
2023/04/25 09:48:06;;;;;;;4.18;2.50;;;;;;;16.02;81.27;99371.28;5293091;33;32839;-88
2023/04/25 09:51:13;;;;;;;2.20;2.03;;;;;;;16.14;78.55;99368.53;5294082;33;35002;-88
2023/04/25 09:54:16;;;;;;;4.62;2.20;;;;;;;16.36;79.80;99368.75;5298377;33;36386;-87
2023/04/25 09:58:30;;;;;;;2.67;1.90;;;;;;;16.43;75.58;99377.56;5605358;31;205383;-86
2023/04/25 10:01:39;;;;;;;1.75;1.65;;;;;;;16.43;75.58;99377.56;5591363;31;34166;-86
2023/04/25 10:04:47;;;;;;;1.80;1.70;;;;;;;15.74;77.95;99377.44;5590716;31;33662;-87
2023/04/25 10:07:51;;;;;;;1.52;1.40;;;;;;;15.60;75.58;99369.50;5595793;31;33755;-85
2023/04/25 10:10:55;;;;;;;4.95;1.85;;;;;;;15.73;78.11;99370.34;5599142;31;33560;-86
2023/04/25 10:14:00;;;;;;;1.98;1.50;;;;;;;15.74;74.71;99366.59;5603652;31;33284;-86
2023/04/25 10:17:03;;;;;;;1.87;1.77;;;;;;;15.46;77.38;99369.97;5603054;31;33685;-86
2023/04/25 10:20:10;;;;;;;1.67;1.58;;;;;;;15.31;76.71;99370.41;5603356;31;33587;-86
2023/04/25 10:23:15;;;;;;;1.48;1.37;;;;;;;14.98;78.11;99366.34;5620566;31;34039;-86
2023/04/25 10:26:18;;;;;;;1.65;1.27;;;;;;;14.98;78.43;99370.94;5609648;31;33912;-86
2023/04/25 10:29:26;;;;;;;1.75;1.20;;;;;;;14.71;79.74;99363.16;5587576;31;34663;-86
2023/04/25 10:32:31;;;;;;;3.70;1.20;;;;;;;14.88;78.06;99371.47;5589546;31;34842;-89
2023/04/25 10:35:35;;;;;;;1.30;1.20;;;;;;;15.08;77.79;99363.88;5596996;31;33338;-87
2023/04/25 10:38:38;;;;;;;1.25;1.20;;;;;;;15.16;77.76;99363.53;5602354;31;33596;-87
2023/04/25 10:41:56;;;;;;;1.17;1.17;;;;;;;15.17;76.14;99370.63;5596489;31;33661;-87
2023/04/25 10:45:05;;;;;;;2.58;1.05;;;;;;;15.42;75.56;99362.28;5595159;31;34022;-87
2023/04/25 10:48:29;;;;;;;2.33;1.20;;;;;;;15.50;74.50;99361.13;5614478;31;33711;-86
2023/04/25 10:51:33;;;;;;;1.37;1.27;;;;;;;15.90;74.20;99374.00;5590174;31;34116;-86
2023/04/25 10:54:57;;;;;;;3.10;1.85;;;;;;;16.04;71.50;99375.41;5589318;31;33198;-87
2023/04/25 10:58:00;;;;;;;2.90;1.10;;;;;;;16.44;70.81;99377.34;5587452;31;34651;-87
2023/04/25 11:01:03;;;;;;;0.80;0.80;;;;;;;16.23;70.05;99367.09;5585398;31;33307;-87
2023/04/25 11:04:28;;;;;;;3.15;1.10;;;;;;;17.05;67.11;99382.31;5584481;31;33778;-87
2023/04/25 11:07:48;;;;;;;4.35;1.02;;;;;;;16.83;67.67;99393.88;5583904;31;33547;-87
2023/04/25 11:11:05;;;;;;;6.97;3.55;;;;;;;16.90;66.11;99382.84;5571476;32;34384;-87
2023/04/25 11:14:09;;;;;;;0.68;0.65;;;;;;;16.51;67.44;99380.72;5570134;32;33728;-86
2023/04/25 11:17:12;;;;;;;0.70;0.70;;;;;;;17.10;64.90;99394.09;5556348;32;34313;-90
2023/04/25 11:20:16;;;;;;;2.00;0.68;;;;;;;16.98;62.44;99393.34;5569293;31;33579;-91
2023/04/25 11:23:19;;;;;;;1.58;0.80;;;;;;;17.28;65.62;99394.94;5570097;31;35276;-90
2023/04/25 11:26:24;;;;;;;2.12;0.80;;;;;;;17.55;61.80;99395.97;5581837;31;33026;-87
2023/04/25 11:29:28;;;;;;;4.28;1.00;;;;;;;17.25;60.77;99409.88;5579255;31;34072;-87
2023/04/25 11:32:31;;;;;;;2.35;0.70;;;;;;;17.14;62.58;99400.72;5578352;31;33352;-87
2023/04/25 11:35:34;;;;;;;1.75;0.90;;;;;;;17.90;62.34;99409.34;5560776;31;33551;-87
2023/04/25 11:38:37;;;;;;;0.93;0.62;;;;;;;19.57;57.69;99401.69;5594393;31;34021;-88
2023/04/25 11:41:41;;;;;;;0.80;0.60;;;;;;;20.58;48.74;99401.56;5579044;31;34177;-87
2023/04/25 11:44:48;;;;;;;0.43;0.43;;;;;;;20.38;51.25;99404.16;5586714;31;33737;-86
2023/04/25 11:47:51;;;;;;;2.12;0.40;;;;;;;19.43;49.89;99412.25;5574573;31;33314;-87
2023/04/25 11:50:55;;;;;;;0.82;0.40;;;;;;;18.87;53.55;99403.53;5572936;31;33645;-86
2023/04/25 11:53:57;;;;;;;0.50;0.50;;;;;;;18.10;55.03;99411.50;5575797;31;33695;-86
2023/04/25 11:57:01;;;;;;;1.92;0.50;;;;;;;17.00;55.01;99411.06;5559310;31;33220;-86
2023/04/25 12:00:21;;;;;;;2.87;0.60;;;;;;;16.64;55.64;99422.28;5588464;31;33653;-87
2023/04/25 12:03:26;;;;;;;1.70;0.70;;;;;;;16.72;57.34;99422.72;5576393;31;33779;-86
2023/04/25 12:06:29;;;;;;;0.60;0.60;;;;;;;16.95;53.91;99431.91;5584528;31;33398;-87
2023/04/25 12:09:33;;;;;;;0.70;0.70;;;;;;;17.05;53.62;99434.78;5587932;31;33983;-87
2023/04/25 12:12:37;;;;;;;1.27;0.90;;;;;;;16.80;55.41;99431.59;5574653;32;35220;-87
2023/04/25 12:15:40;;;;;;;0.88;0.85;;;;;;;17.42;56.41;99431.66;5581416;31;33802;-87
2023/04/25 12:18:43;;;;;;;1.48;1.00;;;;;;;17.44;54.31;99433.06;5578764;31;33734;-87
2023/04/25 12:21:47;;;;;;;4.15;1.08;;;;;;;17.77;55.14;99427.88;5587129;31;33965;-87
2023/04/25 12:24:53;;;;;;;2.87;0.80;;;;;;;18.36;50.84;99425.50;5583612;31;34366;-88
2023/04/25 12:28:12;;;;;;;1.30;0.98;;;;;;;20.52;45.28;99421.75;5594503;26;34067;-86
2023/04/25 12:31:16;;;;;;;0.90;0.70;;;;;;;22.02;41.55;99420.91;5564518;32;34097;-87
2023/04/25 12:34:20;;;;;;;1.75;0.95;;;;;;;23.97;36.88;99408.59;5563083;32;34454;-87
2023/04/25 12:37:23;;;;;;;2.78;0.80;;;;;;;24.23;36.23;99402.03;5566627;32;33646;-87
2023/04/25 12:40:26;;;;;;;1.15;0.57;;;;;;;24.93;34.17;99406.97;5570100;32;33713;-87
2023/04/25 12:43:29;;;;;;;1.77;1.05;;;;;;;26.89;31.99;99402.12;5544338;32;33473;-86
2023/04/25 12:46:32;;;;;;;1.42;0.47;;;;;;;28.66;29.38;99393.50;5568996;32;33894;-87
2023/04/25 12:49:35;;;;;;;0.88;0.70;;;;;;;28.06;27.63;99383.84;5569108;32;34589;-87
2023/04/25 12:52:38;;;;;;;0.52;0.50;;;;;;;29.03;26.73;99385.78;5565262;32;34511;-87
2023/04/25 12:55:45;;;;;;;2.45;0.60;;;;;;;30.10;25.17;99373.06;5540741;32;32937;-87
2023/04/25 12:58:48;;;;;;;0.80;0.60;;;;;;;29.54;25.37;99376.63;5564763;32;33648;-88
2023/04/25 13:01:51;;;;;;;1.27;0.60;;;;;;;29.36;26.11;99378.59;5555650;32;33774;-90
2023/04/25 13:04:55;;;;;;;0.40;0.40;;;;;;;31.14;24.55;99375.25;5548495;32;33893;-89
2023/04/25 13:07:59;;;;;;;1.77;0.50;;;;;;;30.21;24.37;99386.25;5571579;32;34992;-90
2023/04/25 13:11:03;;;;;;;0.57;0.57;;;;;;;31.35;22.62;99373.28;5559526;32;33788;-87
2023/04/25 13:14:06;;;;;;;0.70;0.50;;;;;;;29.82;22.68;99370.72;5570652;32;33570;-87
2023/04/25 13:17:10;;;;;;;0.37;0.37;;;;;;;31.03;22.83;99355.38;5573036;32;34075;-87
2023/04/25 13:20:14;;;;;;;0.65;0.65;;;;;;;31.78;22.28;99358.13;5573535;32;34826;-86
2023/04/25 13:23:17;;;;;;;0.85;0.80;;;;;;;32.29;20.78;99360.66;5573120;32;33692;-87
2023/04/25 13:26:20;;;;;;;1.00;0.65;;;;;;;31.79;22.65;99354.19;5567660;32;33734;-87
2023/04/25 13:29:23;;;;;;;2.00;0.55;;;;;;;32.99;21.50;99360.50;5537200;32;33468;-87
2023/04/25 13:32:26;;;;;;;0.60;0.60;;;;;;;30.93;21.20;99351.06;5542495;32;33846;-87
2023/04/25 13:35:30;;;;;;;0.65;0.52;;;;;;;32.06;20.67;99352.78;5549334;32;35212;-88
2023/04/25 13:38:33;;;;;;;1.20;0.50;;;;;;;31.62;21.49;99348.81;5552879;32;33301;-87
2023/04/25 13:41:37;;;;;;;1.37;0.70;;;;;;;28.35;22.69;99344.53;5554842;32;33959;-87
2023/04/25 13:44:40;;;;;;;1.23;0.70;;;;;;;26.21;24.99;99356.06;5540052;32;33917;-87
2023/04/25 13:47:43;;;;;;;1.17;0.57;;;;;;;24.77;27.11;99354.84;5551768;32;33362;-87
2023/04/25 13:50:46;;;;;;;0.98;0.85;;;;;;;24.85;26.26;99362.44;5538885;32;34111;-87
2023/04/25 13:53:49;;;;;;;1.65;0.75;;;;;;;25.93;25.82;99349.72;5553930;32;34036;-87
2023/04/25 13:56:55;;;;;;;3.55;0.68;;;;;;;26.94;24.58;99347.88;5557162;32;34004;-87
2023/04/25 13:59:59;;;;;;;0.60;0.60;;;;;;;28.25;22.40;99344.81;5555112;32;33908;-87
2023/04/25 14:03:07;;;;;;;1.62;0.73;;;;;;;27.03;23.37;99351.56;5553813;32;33207;-87
2023/04/25 14:06:12;;;;;;;0.80;0.80;;;;;;;26.34;24.63;99351.66;5539469;32;33547;-87
2023/04/25 14:09:20;;;;;;;0.80;0.77;;;;;;;26.21;25.70;99345.84;5526168;32;33612;-88
2023/04/25 14:12:39;;;;;;;0.73;0.73;;;;;;;26.22;24.72;99353.00;5530864;32;33218;-88
2023/04/25 14:15:49;;;;;;;0.85;0.73;;;;;;;25.46;28.33;99346.13;5543563;32;34055;-87
2023/04/25 14:18:56;;;;;;;2.67;1.02;;;;;;;24.89;29.28;99354.41;5519018;32;34192;-87
2023/04/25 14:21:58;;;;;;;1.00;0.90;;;;;;;23.12;29.26;99356.03;5543383;32;33621;-87
2023/04/25 14:25:03;;;;;;;0.70;0.70;;;;;;;22.04;30.50;99353.75;5569106;32;33872;-88
2023/04/25 14:28:16;;;;;;;1.27;1.00;;;;;;;21.80;31.58;99356.28;5548273;32;34928;-87
2023/04/25 14:31:20;;;;;;;2.20;1.02;;;;;;;21.93;31.66;99350.19;5545636;32;33355;-87
2023/04/25 14:34:24;;;;;;;0.88;0.88;;;;;;;21.82;31.88;99348.59;5537466;32;33860;-87
2023/04/25 14:37:30;;;;;;;1.23;1.10;;;;;;;21.79;31.83;99360.13;5545236;32;33997;-88
2023/04/25 14:40:33;;;;;;;1.08;1.08;;;;;;;21.48;31.75;99351.09;5533468;32;34458;-91
2023/04/25 14:43:41;;;;;;;2.17;1.25;;;;;;;22.06;31.21;99357.03;5534744;32;33995;-88
2023/04/25 14:46:44;;;;;;;0.88;0.88;;;;;;;21.82;30.66;99353.25;5534034;32;33737;-88
2023/04/25 14:49:53;;;;;;;2.67;1.10;;;;;;;22.04;31.38;99350.19;5565426;32;33734;-86
2023/04/25 14:52:58;;;;;;;1.67;0.90;;;;;;;21.90;31.43;99353.50;5549679;32;33809;-87
2023/04/25 14:56:02;;;;;;;1.48;1.00;;;;;;;21.92;31.42;99347.75;5548767;32;34125;-87
2023/04/25 14:59:05;;;;;;;0.85;0.85;;;;;;;20.38;32.47;99353.03;5541696;32;33964;-87
2023/04/25 15:02:11;;;;;;;2.42;1.30;;;;;;;19.08;37.10;99353.53;5542083;32;34851;-86
2023/04/25 15:05:14;;;;;;;3.37;1.35;;;;;;;18.10;38.09;99354.31;5542833;32;34468;-87
2023/04/25 15:08:18;;;;;;;1.50;1.40;;;;;;;17.22;39.10;99358.69;5530884;32;34019;-87
2023/04/25 15:11:21;;;;;;;2.08;1.23;;;;;;;16.90;40.12;99367.38;5516607;32;33591;-87
2023/04/25 15:14:26;;;;;;;2.40;1.50;;;;;;;16.79;40.66;99365.56;5527638;32;33762;-87
2023/04/25 15:17:33;;;;;;;1.98;1.30;;;;;;;16.40;41.49;99376.16;5561940;32;34560;-86
2023/04/25 15:20:40;;;;;;;1.15;1.05;;;;;;;16.38;41.67;99372.03;5522059;32;35156;-87
2023/04/25 15:23:46;;;;;;;1.40;1.30;;;;;;;16.17;43.07;99366.16;5546412;32;33798;-87
2023/04/25 15:26:52;;;;;;;1.48;1.08;;;;;;;16.04;42.78;99372.69;5563888;32;33399;-87
2023/04/25 15:29:57;;;;;;;1.60;1.50;;;;;;;15.93;42.88;99368.09;5546916;32;33167;-87
2023/04/25 15:33:02;;;;;;;1.52;1.30;;;;;;;15.79;42.79;99374.81;5563984;32;34080;-87
2023/04/25 15:36:08;;;;;;;1.50;1.40;;;;;;;15.86;44.50;99367.41;5547318;32;34421;-87
2023/04/25 15:39:12;;;;;;;3.45;1.58;;;;;;;16.09;44.26;99366.56;5534887;32;33933;-87
2023/04/25 15:42:15;;;;;;;2.55;1.42;;;;;;;16.20;44.28;99373.84;5549648;32;34008;-87
2023/04/25 15:45:25;;;;;;;1.37;1.27;;;;;;;16.09;42.56;99372.81;5536788;32;34882;-88
2023/04/25 15:48:31;;;;;;;1.62;1.52;;;;;;;15.96;43.63;99378.47;5562026;32;35012;-87
2023/04/25 15:51:35;;;;;;;1.48;1.37;;;;;;;15.80;45.40;99371.91;5536535;32;33624;-87
2023/04/25 15:54:38;;;;;;;2.00;1.85;;;;;;;15.93;45.66;99373.53;5582953;26;33745;-87
2023/04/25 15:57:48;;;;;;;1.92;1.80;;;;;;;15.74;45.81;99375.56;5553753;32;33896;-87
2023/04/25 16:17:15;;;;;;;7.62;2.10;;;;;;;13.90;60.56;99391.41;5447097;27;20096;-87
2023/04/25 16:20:18;;;;;;;2.55;2.35;;;;;;;13.68;62.20;99389.09;5387511;33;33712;-87
2023/04/25 16:23:21;;;;;;;2.60;2.30;;;;;;;13.49;63.77;99393.66;5369734;32;33798;-87
2023/04/25 16:26:24;;;;;;;6.57;2.70;;;;;;;13.37;65.49;99395.44;5403584;32;34287;-87
2023/04/25 16:29:27;;;;;;;3.00;2.70;;;;;;;13.31;66.27;99393.59;5376306;33;35240;-88
2023/04/25 16:32:38;;;;;;;3.10;2.75;;;;;;;13.26;69.21;99394.25;5393546;32;36635;-87
2023/04/25 16:35:42;;;;;;;2.90;2.60;;;;;;;13.14;66.96;99404.91;5406073;32;34065;-88
2023/04/25 16:38:47;;;;;;;3.47;3.15;;;;;;;13.11;70.50;99404.53;5433189;27;34472;-88
2023/04/25 16:42:00;;;;;;;3.00;2.67;;;;;;;13.06;71.46;99407.03;5419259;27;34279;-87
2023/04/25 16:45:26;;;;;;;3.03;2.72;;;;;;;12.99;70.25;99409.78;5393269;32;34142;-88
2023/04/25 16:48:29;;;;;;;4.78;2.90;;;;;;;12.84;71.69;99401.13;5413837;32;33776;-88
2023/04/25 16:51:33;;;;;;;4.85;2.90;;;;;;;12.75;71.21;99402.44;5414283;32;34210;-88
2023/04/25 16:54:36;;;;;;;3.10;2.70;;;;;;;12.68;71.57;99406.00;5418102;32;34310;-88
2023/04/25 16:57:39;;;;;;;3.00;2.70;;;;;;;12.75;72.05;99403.25;5461824;27;33475;-88
2023/04/25 17:00:47;;;;;;;3.62;2.92;;;;;;;12.78;71.90;99413.66;5405112;32;33881;-87
2023/04/25 17:03:56;;;;;;;4.05;3.15;;;;;;;12.80;71.88;99411.53;5406470;32;35029;-88
2023/04/25 17:07:00;;;;;;;4.28;2.87;;;;;;;12.70;73.29;99406.63;5427893;32;35278;-88
2023/04/25 17:10:06;;;;;;;6.55;3.30;;;;;;;12.56;73.80;99413.13;5425106;32;34180;-88
2023/04/25 17:13:09;;;;;;;3.75;3.35;;;;;;;12.47;73.77;99417.94;5403207;32;33841;-88
2023/04/25 17:16:15;;;;;;;4.78;3.10;;;;;;;12.40;76.55;99417.16;5401617;32;31894;-88
2023/04/25 17:19:18;;;;;;;4.32;3.10;;;;;;;12.36;75.47;99420.47;5419580;32;34345;-88
2023/04/25 17:22:21;;;;;;;3.50;3.20;;;;;;;12.34;76.43;99430.63;5445569;32;34111;-87
2023/04/25 17:25:24;;;;;;;5.70;3.00;;;;;;;12.27;75.20;99432.53;5426659;32;34268;-88
2023/04/25 17:28:28;;;;;;;3.40;2.87;;;;;;;12.22;77.20;99435.88;5425075;32;34024;-88
2023/04/25 17:31:31;;;;;;;4.12;2.92;;;;;;;12.10;78.47;99434.88;5424824;32;33964;-88
2023/04/25 17:34:36;;;;;;;4.40;3.05;;;;;;;12.10;77.71;99440.25;5413291;32;35290;-91
2023/04/25 17:37:39;;;;;;;3.47;3.17;;;;;;;11.99;78.18;99442.56;5412895;32;35325;-91
2023/04/25 17:40:43;;;;;;;3.00;2.65;;;;;;;11.98;78.17;99449.00;5424884;32;35189;-92
2023/04/25 17:43:48;;;;;;;3.17;2.87;;;;;;;11.94;78.26;99452.34;5412698;32;33926;-88
2023/04/25 17:46:51;;;;;;;3.10;2.78;;;;;;;11.84;80.68;99460.78;5438922;32;34159;-88
2023/04/25 17:49:55;;;;;;;8.30;3.42;;;;;;;11.80;77.96;99462.25;5412608;32;33472;-88
2023/04/25 17:53:02;;;;;;;4.80;3.25;;;;;;;11.72;79.51;99462.47;5425294;32;33545;-88
2023/04/25 17:56:06;;;;;;;20.55;8.15;;;;;;;11.60;83.58;99464.97;5424409;32;34370;-88
2023/04/25 17:59:28;;;;;;;8.35;4.32;;;;;;;11.50;83.05;99465.38;5426566;32;33703;-88
2023/04/25 18:02:30;;;;;;;5.07;3.40;;;;;;;11.41;81.77;99463.91;5424278;32;33824;-88
2023/04/25 18:05:34;;;;;;;4.95;3.47;;;;;;;11.38;80.43;99466.16;5412651;32;33809;-88
2023/04/25 18:08:37;;;;;;;4.57;3.55;;;;;;;11.32;82.61;99475.94;5424578;32;33766;-88
2023/04/25 18:11:51;;;;;;;3.60;3.28;;;;;;;11.28;82.89;99485.44;5412810;32;34894;-88
2023/04/25 18:14:55;;;;;;;3.95;3.17;;;;;;;11.19;83.50;99486.66;5438365;32;34893;-88
2023/04/25 18:17:58;;;;;;;4.37;3.17;;;;;;;11.26;84.47;99482.97;5413851;32;34417;-88
2023/04/25 18:21:03;;;;;;;4.07;3.22;;;;;;;11.31;83.58;99495.81;5431185;32;33910;-88
2023/04/25 18:24:12;;;;;;;3.78;3.47;;;;;;;11.20;85.42;99499.09;5438076;32;35234;-88
2023/04/25 18:27:15;;;;;;;4.07;3.37;;;;;;;11.30;88.40;99504.94;5440857;32;33976;-88
2023/04/25 18:30:21;;;;;;;5.93;3.85;;;;;;;11.30;86.20;99505.75;5428065;32;33899;-88
2023/04/25 18:33:24;;;;;;;5.25;3.53;;;;;;;11.27;87.40;99508.88;5427307;32;33818;-88
2023/04/25 18:36:27;;;;;;;4.93;3.67;;;;;;;11.23;87.55;99510.31;5416757;32;34975;-87
2023/04/25 18:39:30;;;;;;;5.62;3.60;;;;;;;11.13;87.59;99513.37;5428731;32;33600;-88
2023/04/25 18:42:33;;;;;;;4.47;2.92;;;;;;;11.12;86.42;99527.06;5428209;32;34524;-88